Chicago (MDW/KMDW)

Information

Location
Chicago, IL
Local Time
06:51 / 6:51 am
GMT Time
12:51 / 12:51 pm
Gates
Unassigned
No FAA reported delays
METAR KMDW 161153Z 09005KT 10SM BKN045 OVC050 01/M03 A3026 RMK AO2 SLP258 60000 T00111028 10011 20006 58006
TAF KMDW 161129Z 1612/1712 07003KT 5SM -RAPL SCT020 OVC035 FM161300 07003KT 4SM -SHRA BR OVC010 FM161500 09006KT 2SM -SHRA BR SCT004 OVC008 FM162000 09008KT 1 1/2SM -SHRA BR OVC004 FM170100 10012KT 1SM SHRA BR OVC003 PROB30 1703/1705 1/2SM TSRA FG OVC003CB FM170600 VRB03KT 1SM -RADZ BR OVC003
  • No charts available